sensor_id;sensor_type;location;lat;lon;timestamp;temperature;humidity
47845;DHT22;33605;48.822;8.796;2023-01-19T00:02:21;1.10;44.20
47845;DHT22;33605;48.822;8.796;2023-01-19T00:04:47;1.10;44.20
47845;DHT22;33605;48.822;8.796;2023-01-19T00:07:12;1.00;44.20
47845;DHT22;33605;48.822;8.796;2023-01-19T00:09:38;1.00;44.30
47845;DHT22;33605;48.822;8.796;2023-01-19T00:12:04;0.90;44.20
47845;DHT22;33605;48.822;8.796;2023-01-19T00:14:30;0.90;44.20
47845;DHT22;33605;48.822;8.796;2023-01-19T00:16:56;0.90;44.20
47845;DHT22;33605;48.822;8.796;2023-01-19T00:19:22;0.80;44.10
47845;DHT22;33605;48.822;8.796;2023-01-19T00:21:48;0.80;44.10
47845;DHT22;33605;48.822;8.796;2023-01-19T00:24:13;0.80;44.20
47845;DHT22;33605;48.822;8.796;2023-01-19T00:26:40;0.80;44.20
47845;DHT22;33605;48.822;8.796;2023-01-19T00:29:08;0.80;44.20
47845;DHT22;33605;48.822;8.796;2023-01-19T00:31:34;0.70;44.20
47845;DHT22;33605;48.822;8.796;2023-01-19T00:34:01;0.70;44.20
47845;DHT22;33605;48.822;8.796;2023-01-19T00:36:27;0.70;44.40
47845;DHT22;33605;48.822;8.796;2023-01-19T00:38:52;0.70;44.50
47845;DHT22;33605;48.822;8.796;2023-01-19T00:41:18;0.70;44.50
47845;DHT22;33605;48.822;8.796;2023-01-19T00:44:04;0.70;44.40
47845;DHT22;33605;48.822;8.796;2023-01-19T00:46:30;0.70;44.30
47845;DHT22;33605;48.822;8.796;2023-01-19T00:48:55;0.60;44.30
47845;DHT22;33605;48.822;8.796;2023-01-19T00:51:21;0.60;44.30
47845;DHT22;33605;48.822;8.796;2023-01-19T00:53:46;0.60;44.30
47845;DHT22;33605;48.822;8.796;2023-01-19T00:56:12;0.60;44.20
47845;DHT22;33605;48.822;8.796;2023-01-19T00:58:38;0.60;44.10
47845;DHT22;33605;48.822;8.796;2023-01-19T01:01:03;0.60;44.10
47845;DHT22;33605;48.822;8.796;2023-01-19T01:03:30;0.60;44.10
47845;DHT22;33605;48.822;8.796;2023-01-19T01:05:56;0.60;44.00
47845;DHT22;33605;48.822;8.796;2023-01-19T01:08:22;0.60;44.00
47845;DHT22;33605;48.822;8.796;2023-01-19T01:10:49;0.50;43.80
47845;DHT22;33605;48.822;8.796;2023-01-19T01:13:14;0.50;43.80
47845;DHT22;33605;48.822;8.796;2023-01-19T01:15:40;0.50;43.80
47845;DHT22;33605;48.822;8.796;2023-01-19T01:18:06;0.50;43.80
47845;DHT22;33605;48.822;8.796;2023-01-19T01:20:31;0.50;43.80
47845;DHT22;33605;48.822;8.796;2023-01-19T01:22:59;0.50;43.80
47845;DHT22;33605;48.822;8.796;2023-01-19T01:25:26;0.40;43.70
47845;DHT22;33605;48.822;8.796;2023-01-19T01:27:53;0.40;43.80
47845;DHT22;33605;48.822;8.796;2023-01-19T01:30:19;0.40;43.90
47845;DHT22;33605;48.822;8.796;2023-01-19T01:32:44;0.40;44.00
47845;DHT22;33605;48.822;8.796;2023-01-19T01:35:11;0.40;44.00
47845;DHT22;33605;48.822;8.796;2023-01-19T01:37:37;0.30;44.10
47845;DHT22;33605;48.822;8.796;2023-01-19T01:40:04;0.30;44.20
47845;DHT22;33605;48.822;8.796;2023-01-19T01:42:32;0.30;44.40
47845;DHT22;33605;48.822;8.796;2023-01-19T01:45:00;0.30;44.50
47845;DHT22;33605;48.822;8.796;2023-01-19T01:47:41;0.30;44.70
47845;DHT22;33605;48.822;8.796;2023-01-19T01:50:23;0.30;44.80
47845;DHT22;33605;48.822;8.796;2023-01-19T01:53:10;0.30;45.00
47845;DHT22;33605;48.822;8.796;2023-01-19T01:55:43;0.30;45.10
47845;DHT22;33605;48.822;8.796;2023-01-19T01:58:11;0.30;45.10
47845;DHT22;33605;48.822;8.796;2023-01-19T02:00:38;0.40;45.20
47845;DHT22;33605;48.822;8.796;2023-01-19T02:03:23;0.40;45.20
47845;DHT22;33605;48.822;8.796;2023-01-19T02:05:51;0.40;45.20
47845;DHT22;33605;48.822;8.796;2023-01-19T02:08:31;0.40;45.10
47845;DHT22;33605;48.822;8.796;2023-01-19T02:11:16;0.50;45.20
47845;DHT22;33605;48.822;8.796;2023-01-19T02:14:04;0.50;45.20
47845;DHT22;33605;48.822;8.796;2023-01-19T02:16:30;0.50;45.20
47845;DHT22;33605;48.822;8.796;2023-01-19T02:18:56;0.50;45.20
47845;DHT22;33605;48.822;8.796;2023-01-19T02:21:45;0.50;45.20
47845;DHT22;33605;48.822;8.796;2023-01-19T02:24:14;0.50;45.90
47845;DHT22;33605;48.822;8.796;2023-01-19T02:26:43;0.50;45.30
47845;DHT22;33605;48.822;8.796;2023-01-19T02:29:13;0.50;45.40
47845;DHT22;33605;48.822;8.796;2023-01-19T02:31:39;0.50;45.50
47845;DHT22;33605;48.822;8.796;2023-01-19T02:34:08;0.50;45.50
47845;DHT22;33605;48.822;8.796;2023-01-19T02:36:55;0.50;45.60
47845;DHT22;33605;48.822;8.796;2023-01-19T02:42:08;0.50;45.60
47845;DHT22;33605;48.822;8.796;2023-01-19T02:44:36;0.50;45.70
47845;DHT22;33605;48.822;8.796;2023-01-19T02:47:03;0.50;45.70
47845;DHT22;33605;48.822;8.796;2023-01-19T02:49:29;0.50;45.70
47845;DHT22;33605;48.822;8.796;2023-01-19T02:51:55;0.50;45.70
47845;DHT22;33605;48.822;8.796;2023-01-19T02:54:35;0.50;45.70
47845;DHT22;33605;48.822;8.796;2023-01-19T03:02:44;0.50;45.60
47845;DHT22;33605;48.822;8.796;2023-01-19T03:15:55;0.50;45.60
47845;DHT22;33605;48.822;8.796;2023-01-19T03:18:25;0.60;45.70
47845;DHT22;33605;48.822;8.796;2023-01-19T03:20:55;0.60;45.60
47845;DHT22;33605;48.822;8.796;2023-01-19T03:23:25;0.60;45.60
47845;DHT22;33605;48.822;8.796;2023-01-19T03:25:52;0.60;45.60
47845;DHT22;33605;48.822;8.796;2023-01-19T03:28:19;0.60;45.60
47845;DHT22;33605;48.822;8.796;2023-01-19T03:30:53;0.70;45.80
47845;DHT22;33605;48.822;8.796;2023-01-19T03:33:27;0.70;45.80
47845;DHT22;33605;48.822;8.796;2023-01-19T03:35:59;0.70;45.80
47845;DHT22;33605;48.822;8.796;2023-01-19T03:38:31;0.70;45.80
47845;DHT22;33605;48.822;8.796;2023-01-19T03:41:01;0.70;45.70
47845;DHT22;33605;48.822;8.796;2023-01-19T03:43:27;0.70;46.30
47845;DHT22;33605;48.822;8.796;2023-01-19T03:45:55;0.70;45.60
47845;DHT22;33605;48.822;8.796;2023-01-19T03:48:21;0.70;45.60
47845;DHT22;33605;48.822;8.796;2023-01-19T03:50:47;0.80;45.70
47845;DHT22;33605;48.822;8.796;2023-01-19T03:53:14;0.80;45.70
47845;DHT22;33605;48.822;8.796;2023-01-19T03:55:44;0.80;45.60
47845;DHT22;33605;48.822;8.796;2023-01-19T03:58:10;0.80;45.60
47845;DHT22;33605;48.822;8.796;2023-01-19T04:00:37;0.80;45.40
47845;DHT22;33605;48.822;8.796;2023-01-19T04:03:03;0.80;45.20
47845;DHT22;33605;48.822;8.796;2023-01-19T04:05:29;0.80;45.00
47845;DHT22;33605;48.822;8.796;2023-01-19T04:07:55;0.80;44.90
47845;DHT22;33605;48.822;8.796;2023-01-19T04:10:21;0.80;44.90
47845;DHT22;33605;48.822;8.796;2023-01-19T04:12:47;0.70;44.70
47845;DHT22;33605;48.822;8.796;2023-01-19T04:15:13;0.70;44.60
47845;DHT22;33605;48.822;8.796;2023-01-19T04:17:39;0.70;44.60
47845;DHT22;33605;48.822;8.796;2023-01-19T04:20:06;0.70;44.70
47845;DHT22;33605;48.822;8.796;2023-01-19T04:22:32;0.70;44.80
47845;DHT22;33605;48.822;8.796;2023-01-19T04:24:57;0.70;44.90
47845;DHT22;33605;48.822;8.796;2023-01-19T04:27:23;0.80;45.00
47845;DHT22;33605;48.822;8.796;2023-01-19T04:29:50;0.80;45.10
47845;DHT22;33605;48.822;8.796;2023-01-19T04:32:16;0.80;45.20
47845;DHT22;33605;48.822;8.796;2023-01-19T04:34:41;0.80;45.20
47845;DHT22;33605;48.822;8.796;2023-01-19T04:37:08;0.80;45.20
47845;DHT22;33605;48.822;8.796;2023-01-19T04:39:35;0.80;45.20
47845;DHT22;33605;48.822;8.796;2023-01-19T04:42:00;0.80;45.20
47845;DHT22;33605;48.822;8.796;2023-01-19T04:44:27;0.80;45.20
47845;DHT22;33605;48.822;8.796;2023-01-19T04:46:52;0.80;45.10
47845;DHT22;33605;48.822;8.796;2023-01-19T04:49:19;0.80;45.10
47845;DHT22;33605;48.822;8.796;2023-01-19T04:51:44;0.80;45.10
47845;DHT22;33605;48.822;8.796;2023-01-19T04:54:10;0.80;45.20
47845;DHT22;33605;48.822;8.796;2023-01-19T04:56:36;0.80;45.30
47845;DHT22;33605;48.822;8.796;2023-01-19T04:59:02;0.70;45.20
47845;DHT22;33605;48.822;8.796;2023-01-19T05:01:27;0.70;45.30
47845;DHT22;33605;48.822;8.796;2023-01-19T05:03:53;0.70;45.30
47845;DHT22;33605;48.822;8.796;2023-01-19T05:06:18;0.70;45.30
47845;DHT22;33605;48.822;8.796;2023-01-19T05:08:44;0.60;45.20
47845;DHT22;33605;48.822;8.796;2023-01-19T05:11:10;0.60;45.20
47845;DHT22;33605;48.822;8.796;2023-01-19T05:13:35;0.50;45.20
47845;DHT22;33605;48.822;8.796;2023-01-19T05:16:01;0.50;45.30
47845;DHT22;33605;48.822;8.796;2023-01-19T05:18:27;0.40;45.20
47845;DHT22;33605;48.822;8.796;2023-01-19T05:20:52;0.40;45.30
47845;DHT22;33605;48.822;8.796;2023-01-19T05:23:18;0.40;45.30
47845;DHT22;33605;48.822;8.796;2023-01-19T05:25:43;0.30;45.30
47845;DHT22;33605;48.822;8.796;2023-01-19T05:28:09;0.30;45.30
47845;DHT22;33605;48.822;8.796;2023-01-19T05:30:35;0.30;45.30
47845;DHT22;33605;48.822;8.796;2023-01-19T05:33:00;0.30;45.30
47845;DHT22;33605;48.822;8.796;2023-01-19T05:35:27;0.20;45.30
47845;DHT22;33605;48.822;8.796;2023-01-19T05:37:52;0.20;45.30
47845;DHT22;33605;48.822;8.796;2023-01-19T05:40:18;0.20;45.30
47845;DHT22;33605;48.822;8.796;2023-01-19T05:42:44;0.20;45.30
47845;DHT22;33605;48.822;8.796;2023-01-19T05:45:09;0.20;45.40
47845;DHT22;33605;48.822;8.796;2023-01-19T05:47:36;0.20;45.40
47845;DHT22;33605;48.822;8.796;2023-01-19T05:50:02;0.20;45.30
47845;DHT22;33605;48.822;8.796;2023-01-19T05:52:27;0.20;45.40
47845;DHT22;33605;48.822;8.796;2023-01-19T05:54:53;0.10;45.30
47845;DHT22;33605;48.822;8.796;2023-01-19T05:57:19;0.10;45.30
47845;DHT22;33605;48.822;8.796;2023-01-19T05:59:45;0.10;45.40
47845;DHT22;33605;48.822;8.796;2023-01-19T06:02:11;0.00;45.40
47845;DHT22;33605;48.822;8.796;2023-01-19T06:04:37;0.10;45.60
47845;DHT22;33605;48.822;8.796;2023-01-19T06:07:04;0.00;45.60
47845;DHT22;33605;48.822;8.796;2023-01-19T06:09:31;0.00;45.70
47845;DHT22;33605;48.822;8.796;2023-01-19T06:11:56;0.00;45.80
47845;DHT22;33605;48.822;8.796;2023-01-19T06:14:26;0.00;45.80
47845;DHT22;33605;48.822;8.796;2023-01-19T06:16:52;0.00;46.00
47845;DHT22;33605;48.822;8.796;2023-01-19T06:19:18;0.00;46.00
47845;DHT22;33605;48.822;8.796;2023-01-19T06:21:43;0.10;46.20
47845;DHT22;33605;48.822;8.796;2023-01-19T06:24:14;0.10;46.20
47845;DHT22;33605;48.822;8.796;2023-01-19T06:26:40;0.10;46.20
47845;DHT22;33605;48.822;8.796;2023-01-19T06:29:09;0.10;46.20
47845;DHT22;33605;48.822;8.796;2023-01-19T06:31:35;0.20;46.20
47845;DHT22;33605;48.822;8.796;2023-01-19T06:34:01;0.20;46.30
47845;DHT22;33605;48.822;8.796;2023-01-19T06:36:27;0.20;46.30
47845;DHT22;33605;48.822;8.796;2023-01-19T06:38:52;0.20;46.30
47845;DHT22;33605;48.822;8.796;2023-01-19T06:41:18;0.20;46.40
47845;DHT22;33605;48.822;8.796;2023-01-19T06:43:44;0.20;46.40
47845;DHT22;33605;48.822;8.796;2023-01-19T06:46:09;0.20;46.50
47845;DHT22;33605;48.822;8.796;2023-01-19T06:48:35;0.20;46.50
47845;DHT22;33605;48.822;8.796;2023-01-19T06:51:00;0.20;46.60
47845;DHT22;33605;48.822;8.796;2023-01-19T06:53:26;0.20;46.70
47845;DHT22;33605;48.822;8.796;2023-01-19T06:56:00;0.20;46.90
47845;DHT22;33605;48.822;8.796;2023-01-19T06:58:27;0.20;46.90
47845;DHT22;33605;48.822;8.796;2023-01-19T07:00:53;0.30;47.20
47845;DHT22;33605;48.822;8.796;2023-01-19T07:03:20;0.30;47.20
47845;DHT22;33605;48.822;8.796;2023-01-19T07:05:49;0.30;47.30
47845;DHT22;33605;48.822;8.796;2023-01-19T07:08:15;0.30;47.30
47845;DHT22;33605;48.822;8.796;2023-01-19T07:10:41;0.40;47.90
47845;DHT22;33605;48.822;8.796;2023-01-19T07:13:06;0.40;47.20
47845;DHT22;33605;48.822;8.796;2023-01-19T07:15:32;0.40;47.20
47845;DHT22;33605;48.822;8.796;2023-01-19T07:17:58;0.40;47.10
47845;DHT22;33605;48.822;8.796;2023-01-19T07:20:24;0.50;47.20
47845;DHT22;33605;48.822;8.796;2023-01-19T07:22:55;0.50;47.20
47845;DHT22;33605;48.822;8.796;2023-01-19T07:25:21;0.60;47.40
47845;DHT22;33605;48.822;8.796;2023-01-19T07:27:46;0.60;47.30
47845;DHT22;33605;48.822;8.796;2023-01-19T07:30:12;0.60;47.40
47845;DHT22;33605;48.822;8.796;2023-01-19T07:32:41;0.70;47.70
47845;DHT22;33605;48.822;8.796;2023-01-19T07:35:08;0.70;47.70
47845;DHT22;33605;48.822;8.796;2023-01-19T07:37:34;0.80;47.80
47845;DHT22;33605;48.822;8.796;2023-01-19T07:39:59;0.80;47.80
47845;DHT22;33605;48.822;8.796;2023-01-19T07:42:25;0.90;47.90
47845;DHT22;33605;48.822;8.796;2023-01-19T07:44:51;0.90;47.80
47845;DHT22;33605;48.822;8.796;2023-01-19T07:47:16;1.00;47.90
47845;DHT22;33605;48.822;8.796;2023-01-19T07:49:42;1.00;47.80
47845;DHT22;33605;48.822;8.796;2023-01-19T07:52:08;1.10;47.80
47845;DHT22;33605;48.822;8.796;2023-01-19T07:54:34;1.20;47.80
47845;DHT22;33605;48.822;8.796;2023-01-19T07:56:59;1.20;47.70
47845;DHT22;33605;48.822;8.796;2023-01-19T07:59:28;1.20;47.50
47845;DHT22;33605;48.822;8.796;2023-01-19T08:01:55;1.30;47.50
47845;DHT22;33605;48.822;8.796;2023-01-19T08:04:26;1.40;47.50
47845;DHT22;33605;48.822;8.796;2023-01-19T08:06:52;1.40;47.50
47845;DHT22;33605;48.822;8.796;2023-01-19T08:09:18;1.50;47.90
47845;DHT22;33605;48.822;8.796;2023-01-19T08:11:44;1.60;48.20
47845;DHT22;33605;48.822;8.796;2023-01-19T08:14:09;1.60;48.40
47845;DHT22;33605;48.822;8.796;2023-01-19T08:16:35;1.70;48.80
47845;DHT22;33605;48.822;8.796;2023-01-19T08:19:02;1.90;49.10
47845;DHT22;33605;48.822;8.796;2023-01-19T08:21:28;2.00;49.30
47845;DHT22;33605;48.822;8.796;2023-01-19T08:23:54;2.10;49.50
47845;DHT22;33605;48.822;8.796;2023-01-19T08:26:29;2.30;49.70
47845;DHT22;33605;48.822;8.796;2023-01-19T08:28:57;2.40;49.50
47845;DHT22;33605;48.822;8.796;2023-01-19T08:31:23;2.50;49.20
47845;DHT22;33605;48.822;8.796;2023-01-19T08:33:49;2.70;48.90
47845;DHT22;33605;48.822;8.796;2023-01-19T08:36:15;2.80;48.50
47845;DHT22;33605;48.822;8.796;2023-01-19T08:38:42;2.80;48.00
47845;DHT22;33605;48.822;8.796;2023-01-19T08:41:09;3.00;47.80
47845;DHT22;33605;48.822;8.796;2023-01-19T08:43:35;3.00;47.20
47845;DHT22;33605;48.822;8.796;2023-01-19T08:46:02;3.10;47.00
47845;DHT22;33605;48.822;8.796;2023-01-19T08:48:28;3.10;46.80
47845;DHT22;33605;48.822;8.796;2023-01-19T08:50:54;3.10;46.80
47845;DHT22;33605;48.822;8.796;2023-01-19T08:53:20;3.20;46.70
47845;DHT22;33605;48.822;8.796;2023-01-19T08:55:48;3.20;46.70
47845;DHT22;33605;48.822;8.796;2023-01-19T08:58:13;3.20;46.90
47845;DHT22;33605;48.822;8.796;2023-01-19T09:00:40;3.30;47.30
47845;DHT22;33605;48.822;8.796;2023-01-19T09:03:08;3.30;47.30
47845;DHT22;33605;48.822;8.796;2023-01-19T09:05:35;3.40;47.40
47845;DHT22;33605;48.822;8.796;2023-01-19T09:08:05;3.50;47.40
47845;DHT22;33605;48.822;8.796;2023-01-19T09:10:31;3.50;47.10
47845;DHT22;33605;48.822;8.796;2023-01-19T09:13:01;3.60;47.10
47845;DHT22;33605;48.822;8.796;2023-01-19T09:15:28;3.60;46.90
47845;DHT22;33605;48.822;8.796;2023-01-19T09:17:54;3.70;46.90
47845;DHT22;33605;48.822;8.796;2023-01-19T09:20:20;3.70;47.10
47845;DHT22;33605;48.822;8.796;2023-01-19T09:22:45;3.80;47.40
47845;DHT22;33605;48.822;8.796;2023-01-19T09:25:12;3.80;47.30
47845;DHT22;33605;48.822;8.796;2023-01-19T09:27:37;3.90;47.10
47845;DHT22;33605;48.822;8.796;2023-01-19T09:30:04;4.00;47.60
47845;DHT22;33605;48.822;8.796;2023-01-19T09:32:30;4.00;47.30
47845;DHT22;33605;48.822;8.796;2023-01-19T09:34:56;4.10;46.80
47845;DHT22;33605;48.822;8.796;2023-01-19T09:37:21;4.20;46.10
47845;DHT22;33605;48.822;8.796;2023-01-19T09:39:47;4.20;46.00
47845;DHT22;33605;48.822;8.796;2023-01-19T09:44:47;4.30;45.90
47845;DHT22;33605;48.822;8.796;2023-01-19T09:47:20;4.40;45.60
47845;DHT22;33605;48.822;8.796;2023-01-19T09:50:25;4.40;45.40
47845;DHT22;33605;48.822;8.796;2023-01-19T09:52:46;4.40;45.50
47845;DHT22;33605;48.822;8.796;2023-01-19T09:55:19;4.50;45.60
47845;DHT22;33605;48.822;8.796;2023-01-19T09:57:46;4.60;45.60
47845;DHT22;33605;48.822;8.796;2023-01-19T10:00:16;4.60;45.30
47845;DHT22;33605;48.822;8.796;2023-01-19T10:15:48;4.50;44.30
47845;DHT22;33605;48.822;8.796;2023-01-19T10:21:12;4.40;44.30
47845;DHT22;33605;48.822;8.796;2023-01-19T10:23:51;4.40;44.50
47845;DHT22;33605;48.822;8.796;2023-01-19T10:26:31;4.40;44.60
47845;DHT22;33605;48.822;8.796;2023-01-19T10:29:30;4.40;44.70
47845;DHT22;33605;48.822;8.796;2023-01-19T10:32:23;4.40;45.20
47845;DHT22;33605;48.822;8.796;2023-01-19T10:34:50;4.40;45.80
47845;DHT22;33605;48.822;8.796;2023-01-19T10:39:44;4.70;46.30
47845;DHT22;33605;48.822;8.796;2023-01-19T10:42:14;5.00;46.60
47845;DHT22;33605;48.822;8.796;2023-01-19T10:44:40;5.40;46.80
47845;DHT22;33605;48.822;8.796;2023-01-19T10:47:17;6.00;46.90
47845;DHT22;33605;48.822;8.796;2023-01-19T11:02:51;8.60;40.10
47845;DHT22;33605;48.822;8.796;2023-01-19T11:05:25;8.60;39.50
47845;DHT22;33605;48.822;8.796;2023-01-19T11:07:51;8.50;39.20
47845;DHT22;33605;48.822;8.796;2023-01-19T11:12:58;8.30;38.70
47845;DHT22;33605;48.822;8.796;2023-01-19T11:15:40;8.00;38.50
47845;DHT22;33605;48.822;8.796;2023-01-19T11:18:07;7.80;38.60
47845;DHT22;33605;48.822;8.796;2023-01-19T11:20:50;7.60;38.70
47845;DHT22;33605;48.822;8.796;2023-01-19T11:23:27;7.40;38.90
47845;DHT22;33605;48.822;8.796;2023-01-19T11:25:57;7.20;39.20
47845;DHT22;33605;48.822;8.796;2023-01-19T11:28:30;7.00;39.40
47845;DHT22;33605;48.822;8.796;2023-01-19T11:33:38;6.60;39.90
47845;DHT22;33605;48.822;8.796;2023-01-19T11:36:24;6.50;40.20
47845;DHT22;33605;48.822;8.796;2023-01-19T11:39:44;6.40;40.60
47845;DHT22;33605;48.822;8.796;2023-01-19T11:41:38;6.30;40.80
47845;DHT22;33605;48.822;8.796;2023-01-19T11:44:15;6.20;41.10
47845;DHT22;33605;48.822;8.796;2023-01-19T11:46:43;6.10;41.90
47845;DHT22;33605;48.822;8.796;2023-01-19T11:49:20;6.00;41.40
47845;DHT22;33605;48.822;8.796;2023-01-19T11:52:27;6.00;41.70
47845;DHT22;33605;48.822;8.796;2023-01-19T11:57:49;5.90;42.10
47845;DHT22;33605;48.822;8.796;2023-01-19T12:00:33;5.80;42.30
47845;DHT22;33605;48.822;8.796;2023-01-19T12:03:29;5.80;42.60
47845;DHT22;33605;48.822;8.796;2023-01-19T12:06:03;5.80;42.90
47845;DHT22;33605;48.822;8.796;2023-01-19T12:08:42;5.80;43.10
47845;DHT22;33605;48.822;8.796;2023-01-19T12:11:14;5.80;43.20
47845;DHT22;33605;48.822;8.796;2023-01-19T12:13:41;5.80;43.20
47845;DHT22;33605;48.822;8.796;2023-01-19T12:18:43;5.80;43.50
47845;DHT22;33605;48.822;8.796;2023-01-19T12:21:10;5.80;43.70
47845;DHT22;33605;48.822;8.796;2023-01-19T12:23:43;5.90;44.00
47845;DHT22;33605;48.822;8.796;2023-01-19T12:28:42;5.90;44.30
47845;DHT22;33605;48.822;8.796;2023-01-19T12:31:08;6.00;44.60
47845;DHT22;33605;48.822;8.796;2023-01-19T12:33:38;6.00;44.80
47845;DHT22;33605;48.822;8.796;2023-01-19T12:41:34;6.10;45.10
47845;DHT22;33605;48.822;8.796;2023-01-19T12:46:41;6.00;45.20
47845;DHT22;33605;48.822;8.796;2023-01-19T12:49:33;6.10;45.30
47845;DHT22;33605;48.822;8.796;2023-01-19T12:57:57;6.00;45.40
47845;DHT22;33605;48.822;8.796;2023-01-19T13:02:50;6.00;45.40
47845;DHT22;33605;48.822;8.796;2023-01-19T13:13:28;6.10;45.50
47845;DHT22;33605;48.822;8.796;2023-01-19T13:15:55;6.20;45.60
47845;DHT22;33605;48.822;8.796;2023-01-19T13:18:24;6.20;45.50
47845;DHT22;33605;48.822;8.796;2023-01-19T13:21:09;6.30;45.50
47845;DHT22;33605;48.822;8.796;2023-01-19T13:26:20;6.30;44.90
47845;DHT22;33605;48.822;8.796;2023-01-19T13:28:52;6.40;44.80
47845;DHT22;33605;48.822;8.796;2023-01-19T13:31:19;6.40;44.60
47845;DHT22;33605;48.822;8.796;2023-01-19T13:33:49;6.30;44.20
47845;DHT22;33605;48.822;8.796;2023-01-19T13:38:49;6.30;44.10
47845;DHT22;33605;48.822;8.796;2023-01-19T13:41:19;6.30;44.10
47845;DHT22;33605;48.822;8.796;2023-01-19T13:43:45;6.30;44.00
47845;DHT22;33605;48.822;8.796;2023-01-19T13:46:13;6.30;44.00
47845;DHT22;33605;48.822;8.796;2023-01-19T13:48:39;6.30;44.20
47845;DHT22;33605;48.822;8.796;2023-01-19T13:51:17;6.30;44.30
47845;DHT22;33605;48.822;8.796;2023-01-19T13:53:56;6.30;44.20
47845;DHT22;33605;48.822;8.796;2023-01-19T13:56:24;6.30;44.20
47845;DHT22;33605;48.822;8.796;2023-01-19T13:59:05;6.30;44.30
47845;DHT22;33605;48.822;8.796;2023-01-19T14:01:36;6.30;44.30
47845;DHT22;33605;48.822;8.796;2023-01-19T14:04:02;6.30;44.20
47845;DHT22;33605;48.822;8.796;2023-01-19T14:06:32;6.30;43.80
47845;DHT22;33605;48.822;8.796;2023-01-19T14:09:17;6.30;43.80
47845;DHT22;33605;48.822;8.796;2023-01-19T14:12:03;6.30;43.80
47845;DHT22;33605;48.822;8.796;2023-01-19T14:14:29;6.30;43.90
47845;DHT22;33605;48.822;8.796;2023-01-19T14:16:55;6.20;43.90
47845;DHT22;33605;48.822;8.796;2023-01-19T14:19:21;6.20;44.00
47845;DHT22;33605;48.822;8.796;2023-01-19T14:21:57;6.20;44.10
47845;DHT22;33605;48.822;8.796;2023-01-19T14:24:23;6.20;44.20
47845;DHT22;33605;48.822;8.796;2023-01-19T14:27:26;6.20;44.20
47845;DHT22;33605;48.822;8.796;2023-01-19T14:29:51;6.20;44.20
47845;DHT22;33605;48.822;8.796;2023-01-19T14:32:23;6.20;44.20
47845;DHT22;33605;48.822;8.796;2023-01-19T14:37:32;6.20;44.30
47845;DHT22;33605;48.822;8.796;2023-01-19T14:42:38;6.20;45.00
47845;DHT22;33605;48.822;8.796;2023-01-19T14:45:17;6.20;44.40
47845;DHT22;33605;48.822;8.796;2023-01-19T14:47:45;6.20;44.40
47845;DHT22;33605;48.822;8.796;2023-01-19T14:50:33;6.20;44.40
47845;DHT22;33605;48.822;8.796;2023-01-19T14:53:02;6.20;44.30
47845;DHT22;33605;48.822;8.796;2023-01-19T14:55:42;6.20;44.20
47845;DHT22;33605;48.822;8.796;2023-01-19T14:58:15;6.20;44.00
47845;DHT22;33605;48.822;8.796;2023-01-19T15:00:42;6.10;43.80
47845;DHT22;33605;48.822;8.796;2023-01-19T15:03:08;6.10;43.70
47845;DHT22;33605;48.822;8.796;2023-01-19T15:05:43;6.10;43.70
47845;DHT22;33605;48.822;8.796;2023-01-19T15:08:32;6.10;43.70
47845;DHT22;33605;48.822;8.796;2023-01-19T15:11:08;6.00;43.50
47845;DHT22;33605;48.822;8.796;2023-01-19T15:13:35;6.00;43.60
47845;DHT22;33605;48.822;8.796;2023-01-19T15:16:01;6.00;43.60
47845;DHT22;33605;48.822;8.796;2023-01-19T15:18:31;6.00;43.70
47845;DHT22;33605;48.822;8.796;2023-01-19T15:20:56;6.00;43.80
47845;DHT22;33605;48.822;8.796;2023-01-19T15:23:28;6.00;43.90
47845;DHT22;33605;48.822;8.796;2023-01-19T15:25:58;5.90;43.80
47845;DHT22;33605;48.822;8.796;2023-01-19T15:28:24;5.90;43.80
47845;DHT22;33605;48.822;8.796;2023-01-19T15:30:50;6.00;44.00
47845;DHT22;33605;48.822;8.796;2023-01-19T15:33:22;5.90;43.50
47845;DHT22;33605;48.822;8.796;2023-01-19T15:35:49;5.90;43.30
47845;DHT22;33605;48.822;8.796;2023-01-19T15:38:15;5.90;43.30
47845;DHT22;33605;48.822;8.796;2023-01-19T15:40:41;5.90;43.20
47845;DHT22;33605;48.822;8.796;2023-01-19T15:43:09;5.90;43.20
47845;DHT22;33605;48.822;8.796;2023-01-19T15:45:37;5.80;43.10
47845;DHT22;33605;48.822;8.796;2023-01-19T15:48:08;5.80;43.10
47845;DHT22;33605;48.822;8.796;2023-01-19T15:50:44;5.70;43.00
47845;DHT22;33605;48.822;8.796;2023-01-19T15:53:14;5.70;43.10
47845;DHT22;33605;48.822;8.796;2023-01-19T15:55:40;5.70;43.10
47845;DHT22;33605;48.822;8.796;2023-01-19T15:58:05;5.60;43.10
47845;DHT22;33605;48.822;8.796;2023-01-19T16:00:32;5.60;43.30
47845;DHT22;33605;48.822;8.796;2023-01-19T16:02:59;5.50;43.30
47845;DHT22;33605;48.822;8.796;2023-01-19T16:05:25;5.40;43.30
47845;DHT22;33605;48.822;8.796;2023-01-19T16:07:50;5.40;43.40
47845;DHT22;33605;48.822;8.796;2023-01-19T16:10:16;5.40;43.60
47845;DHT22;33605;48.822;8.796;2023-01-19T16:12:43;5.40;43.80
47845;DHT22;33605;48.822;8.796;2023-01-19T16:15:10;5.40;43.90
47845;DHT22;33605;48.822;8.796;2023-01-19T16:17:36;5.40;44.00
47845;DHT22;33605;48.822;8.796;2023-01-19T16:20:06;5.40;44.10
47845;DHT22;33605;48.822;8.796;2023-01-19T16:22:32;5.40;44.20
47845;DHT22;33605;48.822;8.796;2023-01-19T16:24:58;5.30;44.10
47845;DHT22;33605;48.822;8.796;2023-01-19T16:27:24;5.30;44.00
47845;DHT22;33605;48.822;8.796;2023-01-19T16:29:50;5.30;43.90
47845;DHT22;33605;48.822;8.796;2023-01-19T16:32:16;5.30;43.90
47845;DHT22;33605;48.822;8.796;2023-01-19T16:34:41;5.30;44.00
47845;DHT22;33605;48.822;8.796;2023-01-19T16:37:07;5.20;44.00
47845;DHT22;33605;48.822;8.796;2023-01-19T16:39:33;5.20;44.20
47845;DHT22;33605;48.822;8.796;2023-01-19T16:41:58;5.20;44.40
47845;DHT22;33605;48.822;8.796;2023-01-19T16:44:24;5.20;44.50
47845;DHT22;33605;48.822;8.796;2023-01-19T16:46:50;5.20;44.80
47845;DHT22;33605;48.822;8.796;2023-01-19T16:49:20;5.20;45.00
47845;DHT22;33605;48.822;8.796;2023-01-19T16:51:47;5.20;45.00
47845;DHT22;33605;48.822;8.796;2023-01-19T16:54:14;5.20;44.90
47845;DHT22;33605;48.822;8.796;2023-01-19T16:56:40;5.20;44.90
47845;DHT22;33605;48.822;8.796;2023-01-19T16:59:08;5.20;44.80
47845;DHT22;33605;48.822;8.796;2023-01-19T17:01:34;5.20;44.70
47845;DHT22;33605;48.822;8.796;2023-01-19T17:04:02;5.30;44.70
47845;DHT22;33605;48.822;8.796;2023-01-19T17:06:29;5.30;44.50
47845;DHT22;33605;48.822;8.796;2023-01-19T17:08:55;5.30;44.40
47845;DHT22;33605;48.822;8.796;2023-01-19T17:11:26;5.30;44.40
47845;DHT22;33605;48.822;8.796;2023-01-19T17:13:57;5.30;44.40
47845;DHT22;33605;48.822;8.796;2023-01-19T17:16:25;5.20;44.40
47845;DHT22;33605;48.822;8.796;2023-01-19T17:18:52;5.30;44.50
47845;DHT22;33605;48.822;8.796;2023-01-19T17:21:17;5.20;44.40
47845;DHT22;33605;48.822;8.796;2023-01-19T17:23:46;5.20;44.40
47845;DHT22;33605;48.822;8.796;2023-01-19T17:26:12;5.10;44.30
47845;DHT22;33605;48.822;8.796;2023-01-19T17:28:38;5.10;44.30
47845;DHT22;33605;48.822;8.796;2023-01-19T17:31:24;5.00;44.10
47845;DHT22;33605;48.822;8.796;2023-01-19T17:33:49;5.00;44.10
47845;DHT22;33605;48.822;8.796;2023-01-19T17:36:18;4.90;44.10
47845;DHT22;33605;48.822;8.796;2023-01-19T17:38:50;4.80;44.20